Terminal Aerodrome Forecast
Issued by NWS Central Illinois

Home | Current Version | Previous Version | Text Only | Print | Product List | Glossary On
Versions: 1 2 3 4 5 6 7 8 9 10 11 12 13 14 15 16 17
000
FTUS43 KILX 191130
TAFPIA
TAF
KPIA 191130Z 1912/2012 09009KT P6SM SCT060 OVC120
     FM191500 08008KT P6SM VCSH OVC060
     FM191700 VRB06KT 4SM -RA BR OVC025
     FM200600 24006KT 5SM BR VCSH OVC035=

USA.gov is the U.S. government's official web portal to all federal, state and local government web resources and services.